Jepson Prairie Reserve, California Weather observations

Data are for 10 minute period ending at time listed.
 Day   Time   Solar   Ave.   Ave.  Ave.  Vector  Max.   Baro.   Total    
  of    of     Rad.   Air    Rel.  Wind   Wind   Wind  Press.  Precip.   
Year   Day            Temp.  Hum.  Speed  Dir.   Gust                    
2016   (PST)  Kw/m2    F      %     mph   deg.    mph    mb.     in.     
-------------------------------------------------------------------------
 146    9:10   0.70   64.3    67   17.0   227    21.9   1016.6    0.00 
 146    9:20   0.73   65.0    66   17.1   228    22.4   1016.6    0.00 
 146    9:30   0.75   65.1    65   17.8   229    22.7   1016.6    0.00 
 146    9:40   0.77   65.8    64   16.5   231    21.9   1016.6    0.00 
 146    9:50   0.79   66.4    63   16.9   233    22.2   1016.6    0.00 
 146   10:00   0.81   66.5    63   16.0   226    20.8   1016.6    0.00 
 146   10:10   0.83   67.5    61   15.3   220    20.0   1016.6    0.00 
 146   10:20   0.85   67.2    62   17.4   215    21.8   1016.6    0.00 
 146   10:30   0.86   67.8    61   16.8   230    21.6   1016.9    0.00 
 146   10:40   0.87   68.6    60   17.0   221    22.8   1016.9    0.00 
 146   10:50   0.89   68.2    60   17.3   223    21.9   1016.9    0.00 
 146   11:00   0.90   68.8    59   18.6   220    24.3   1016.9    0.00 
 146   11:10   0.90   68.8    59   19.5   224    26.1   1016.9    0.00 
 146   11:20   0.91   68.9    58   20.1   227    25.5   1016.9    0.00 
 146   11:30   0.91   68.9    58   19.4   217    26.2   1016.6    0.00 
 146   11:40   0.92   69.1    58   18.5   222    23.6   1016.6    0.00 
 146   11:50   0.93   69.4    57   19.8   220    25.9   1016.6    0.00 
 146   12:00   0.93   69.8    57   19.1   209    24.3   1016.3    0.00 
 146   12:10   0.93   70.2    56   19.5   212    23.7   1016.3    0.00 
 146   12:20   0.93   70.4    55   19.2   218    24.4   1016.3    0.00 
 146   12:30   0.93   71.0    54   19.4   225    25.6   1015.9    0.00 
 146   12:40   0.92   71.3    54   18.9   221    24.3   1015.9    0.00 
 146   12:50   0.91   71.6    54   19.5   216    25.8   1015.9    0.00 
 146   13:00   0.91   72.2    53   20.3   210    27.8   1015.6    0.00 
 146   13:10   0.90   73.3    53   20.2   213    27.1   1015.6    0.00 
 146   13:20   0.89   73.7    53   20.9   211    26.6   1015.6    0.00 
 146   13:30   0.88   74.6    51   19.6   212    26.7   1015.2    0.00 
 146   13:40   0.86   74.3    51   20.0   216    28.5   1015.2    0.00 
 146   13:50   0.85   74.4    50   20.9   222    25.6   1015.2    0.00 
 146   14:00   0.84   74.8    49   19.8   220    26.9   1015.2    0.00 
 146   14:10   0.82   75.2    48   21.2   223    28.0   1014.9    0.00 
 146   14:20   0.80   75.0    48   21.2   223    28.6   1014.9    0.00 
 146   14:30   0.78   75.1    48   21.7   219    29.0   1014.9    0.00 
 146   14:40   0.76   75.3    48   21.4   228    27.0   1014.9    0.00 
 146   14:50   0.73   74.6    48   22.5   222    29.0   1014.9    0.00 
 146   15:00   0.71   74.3    48   21.9   225    27.8   1014.9    0.00 
 146   15:10   0.69   74.8    47   21.8   224    28.1   1014.9    0.00 
 146   15:20   0.66   74.3    47   23.6   227    28.8   1014.6    0.00 
 146   15:30   0.63   73.9    48   23.1   222    29.2   1014.6    0.00 
 146   15:40   0.60   73.9    48   23.4   220    29.0   1014.9    0.00 
 146   15:50   0.57   73.4    50   22.5   220    28.9   1014.9    0.00 
 146   16:00   0.55   72.6    50   23.9   225    30.0   1014.9    0.00 
 146   16:10   0.52   72.5    50   23.2   225    30.5   1014.9    0.00 
 146   16:20   0.49   72.5    50   23.3   217    31.9   1014.6    0.00 
 146   16:30   0.46   71.7    51   23.2   213    30.5   1014.9    0.00 
 146   16:40   0.42   71.3    51   23.6   217    31.1   1014.6    0.00 
 146   16:50   0.39   70.6    52   24.9   215    30.2   1014.9    0.00 
 146   17:00   0.34   70.6    51   23.8   216    31.0   1014.9    0.00 
 146   17:10   0.33   70.2    50   24.1   217    31.9   1014.6    0.00 
 146   17:20   0.28   70.0    49   24.6   220    32.0   1014.6    0.00 
 146   17:30   0.12   68.9    50   22.8   219    29.2   1014.6    0.00 
 146   17:40   0.05   67.6    50   22.2   217    29.2   1014.6    0.00 
 146   17:50   0.04   66.3    58   19.4   213    27.3   1014.9    0.00 
 146   18:00   0.05   64.9    66   18.9   208    24.5   1014.9    0.00 
 146   18:10   0.04   64.5    67   17.4   205    23.6   1014.9    0.00 
 146   18:20   0.06   64.4    67   17.4   199    21.9   1014.6    0.00 
 146   18:30   0.07   64.6    67   19.4   202    24.9   1014.6    0.00 
 146   18:40   0.07   64.7    66   20.8   208    27.2   1014.6    0.00 
 146   18:50   0.05   63.9    68   20.4   209    26.4   1014.6    0.00 
 146   19:00   0.03   63.0    68   21.7   208    27.8   1014.6    0.00 
 146   19:10   0.02   62.5    69   21.8   209    28.1   1014.6    0.00 
 146   19:20   0.01   61.9    70   21.0   208    26.8   1014.6    0.00 
 146   19:30   0.00   61.5    70   20.6   207    27.7   1014.6    0.00 
 146   19:40   0.00   61.3    70   20.4   206    25.8   1014.6    0.00 
 146   19:50   0.00   61.0    71   20.8   210    25.7   1014.6    0.00 
 146   20:00   0.00   60.8    72   20.9   213    27.5   1014.6    0.00 
 146   20:10   0.00   60.5    72   20.8   211    27.2   1014.9    0.00 
 146   20:20   0.00   60.3    72   22.2   212    28.4   1014.9    0.00 
 146   20:30   0.00   59.9    72   22.3   214    30.0   1014.9    0.00 
 146   20:40   0.00   59.5    74   19.9   211    25.8   1015.2    0.00 
 146   20:50   0.00   59.3    74   20.6   214    26.5   1015.2    0.00 
 146   21:00   0.00   58.9    75   20.1   214    26.5   1015.2    0.00 
 146   21:10   0.00   58.8    75   22.4   217    28.8   1015.2    0.00 
 146   21:20   0.00   58.4    74   20.0   215    26.9   1015.2    0.00 
 146   21:30   0.00   58.2    75   20.3   216    27.6   1015.2    0.00 
 146   21:40   0.00   57.9    77   19.2   212    23.8   1015.2    0.00 
 146   21:50   0.00   57.5    80   19.4   213    25.6   1015.2    0.00 
 146   22:00   0.00   57.2    81   19.4   213    24.6   1015.2    0.00 
 146   22:10   0.00   57.1    81   20.3   214    26.7   1014.9    0.00 
 146   22:20   0.00   57.1    80   20.9   216    28.6   1015.2    0.00 
 146   22:30   0.00   57.0    81   20.6   217    26.6   1015.2    0.00 
 146   22:40   0.00   56.7    82   19.2   212    25.6   1015.2    0.00 
 146   22:50   0.00   56.5    82   20.8   214    27.0   1014.9    0.00 
 146   23:00   0.00   56.4    82   20.5   216    25.5   1014.9    0.00 
 146   23:10   0.00   56.5    82   21.0   214    27.3   1014.9    0.00 
 146   23:20   0.00   56.4    82   21.3   215    26.7   1014.9    0.00 
 146   23:30   0.00   56.2    83   20.3   218    26.2   1014.9    0.00 
 146   23:40   0.00   56.1    83   20.6   217    26.7   1014.9    0.00 
 146   23:50   0.00   56.0    84   18.0   217    25.6   1014.9    0.00 
 147    0:00   0.00   55.9    84   17.7   215    24.0   1014.9    0.00 
 147    0:10   0.00   55.9    84   17.6   212    23.8   1014.9    0.00 
 147    0:20   0.00   55.8    85   16.6   212    22.7   1015.2    0.00 
 147    0:30   0.00   55.7    85   18.2   213    22.4   1014.9    0.00 
 147    0:40   0.00   55.5    85   16.3   216    23.1   1014.9    0.00 
 147    0:50   0.00   55.2    86   14.9   217    19.6   1014.9    0.00 
 147    1:00   0.00   55.1    86   14.6   215    19.6   1014.9    0.00 
 147    1:10   0.00   54.9    87   12.4   213    16.8   1014.9    0.00 
 147    1:20   0.00   54.7    87   12.0   210    16.7   1015.2    0.00 
 147    1:30   0.00   54.8    87   14.4   213    19.6   1015.2    0.00 
 147    1:40   0.00   54.7    87   14.4   210    20.0   1014.9    0.00 
 147    1:50   0.00   54.4    88   12.7   206    16.7   1014.9    0.00 
 147    2:00   0.00   54.0    90   12.8   211    17.2   1014.9    0.00 
 147    2:10   0.00   53.8    90   13.9   208    18.6   1014.9    0.00 
 147    2:20   0.00   53.6    91   14.9   207    19.8   1014.6    0.00 
 147    2:30   0.00   53.5    90   14.8   210    19.0   1014.6    0.00 
 147    2:40   0.00   53.5    90   13.4   208    18.9   1014.6    0.00 
 147    2:50   0.00   53.5    90   15.2   209    20.5   1014.6    0.00 
 147    3:00   0.00   53.6    90   15.0   210    20.0   1014.2    0.00 
 147    3:10   0.00   53.6    90   14.3   206    17.6   1014.2    0.00 
 147    3:20   0.00   53.6    90   14.8   208    18.5   1014.2    0.00 
 147    3:30   0.00   53.6    89   15.2   209    19.1   1014.2    0.00 
 147    3:40   0.00   53.6    89   15.3   210    19.1   1014.2    0.00 
 147    3:50   0.00   53.6    89   14.0   210    18.0   1014.2    0.00 
 147    4:00   0.00   53.5    89   14.1   210    18.4   1014.2    0.00 
 147    4:10   0.00   53.5    90   13.6   210    17.9   1014.6    0.00 
 147    4:20   0.00   53.5    90   13.1   211    16.3   1014.6    0.00 
 147    4:30   0.00   53.3    90   13.0   211    16.9   1014.6    0.00 
 147    4:40   0.00   53.1    90   13.0   210    16.4   1014.6    0.00 
 147    4:50   0.00   53.1    90   12.7   212    20.1   1014.6    0.00 
 147    5:00   0.01   53.1    90   13.7   213    18.6   1014.6    0.00 
 147    5:10   0.02   53.3    90   13.1   217    16.9   1014.6    0.00 
 147    5:20   0.04   53.5    90   13.0   218    17.0   1014.6    0.00 
 147    5:30   0.06   53.6    90   12.8   220    17.5   1014.9    0.00 
 147    5:40   0.08   54.0    89   13.8   215    18.3   1014.9    0.00 
 147    5:50   0.11   54.8    88   14.2   212    17.8   1014.9    0.00 
 147    6:00   0.13   55.3    86   12.6   214    20.0   1014.9    0.00 
 147    6:10   0.16   55.9    85   13.0   216    18.8   1015.2    0.00 
 147    6:20   0.19   56.5    84   11.5   217    16.5   1015.2    0.00 
 147    6:30   0.22   57.1    82   13.5   220    19.0   1015.2    0.00 
 147    6:40   0.26   57.6    80   14.5   220    18.7   1015.2    0.00 
 147    6:50   0.29   58.3    78   16.0   217    20.4   1015.2    0.00 
 147    7:00   0.32   59.0    77   16.3   219    20.8   1015.2    0.00 
 147    7:10   0.35   59.6    75   17.1   223    21.4   1015.6    0.00 
 147    7:20   0.38   60.2    74   17.2   230    20.7   1015.6    0.00 
 147    7:30   0.41   60.9    73   16.9   226    21.1   1015.6    0.00 
 147    7:40   0.44   61.4    71   16.6   228    20.9   1015.6    0.00 
 147    7:50   0.48   62.3    70   15.9   229    20.8   1015.6    0.00 
 147    8:00   0.51   62.5    69   16.2   229    20.9   1015.9    0.00 
 147    8:10   0.54   63.8    67   14.4   228    19.4   1015.9    0.00 
 147    8:20   0.56   64.3    66   14.9   231    18.6   1015.9    0.00 
 147    8:30   0.59   65.1    64   15.3   234    19.7   1015.9    0.00 
 147    8:40   0.62   65.4    64   14.3   228    18.6   1015.9    0.00 
 147    8:50   0.65   65.8    63   14.9   231    20.2   1015.9    0.00 
 147    9:00   0.68   66.4    62   14.3   234    19.1   1016.3    0.00 

Return to Jepson Prairie Reserve graphs page.


Western Regional Climate Center,wrcc@dri.edu